createdAt,value
2022-11-07T00:00:26.436Z,87.10
2022-11-07T00:01:26.438Z,87.20
2022-11-07T00:02:26.482Z,87.10
2022-11-07T00:03:26.418Z,87.20
2022-11-07T00:04:26.393Z,86.79
2022-11-07T00:05:26.378Z,87.20
2022-11-07T00:06:26.391Z,86.68
2022-11-07T00:07:26.365Z,87.51
2022-11-07T00:08:26.345Z,86.68
2022-11-07T00:09:26.328Z,86.89
2022-11-07T00:10:26.344Z,87.61
2022-11-07T00:11:26.340Z,87.51
2022-11-07T00:12:26.394Z,86.89
2022-11-07T00:13:26.306Z,87.71
2022-11-07T00:14:26.289Z,87.40
2022-11-07T00:15:26.300Z,87.92
2022-11-07T00:16:26.276Z,88.17
2022-11-07T00:17:26.254Z,88.98
2022-11-07T00:18:26.222Z,88.74
2022-11-07T00:19:26.266Z,88.43
2022-11-07T00:20:26.227Z,88.47
2022-11-07T00:21:26.193Z,88.57
2022-11-07T00:22:26.215Z,88.68
2022-11-07T00:23:26.198Z,90.12
2022-11-07T00:24:26.241Z,88.98
2022-11-07T00:25:26.260Z,88.57
2022-11-07T00:26:26.168Z,88.53
2022-11-07T00:27:26.223Z,88.84
2022-11-07T00:28:26.130Z,88.84
2022-11-07T00:29:26.137Z,88.95
2022-11-07T00:30:26.114Z,88.23
2022-11-07T00:31:26.093Z,88.33
2022-11-07T00:32:26.087Z,88.68
2022-11-07T00:33:26.094Z,88.57
2022-11-07T00:34:26.097Z,89.04
2022-11-07T00:35:26.044Z,88.78
2022-11-07T00:36:26.048Z,88.78
2022-11-07T00:37:26.956Z,88.89
2022-11-07T00:38:26.060Z,88.64
2022-11-07T00:39:26.019Z,88.74
2022-11-07T00:40:26.015Z,88.64
2022-11-07T00:41:26.032Z,88.84
2022-11-07T00:42:25.970Z,88.43
2022-11-07T00:43:25.973Z,88.23
2022-11-07T00:44:25.957Z,88.23
2022-11-07T00:45:25.957Z,87.92
2022-11-07T00:46:25.928Z,87.92
2022-11-07T00:47:25.928Z,87.92
2022-11-07T00:48:25.933Z,87.61
2022-11-07T00:49:25.890Z,87.92
2022-11-07T00:50:25.894Z,87.92
2022-11-07T00:51:25.876Z,87.92
2022-11-07T00:52:25.881Z,88.02
2022-11-07T00:53:25.864Z,87.92
2022-11-07T00:54:25.863Z,87.92
2022-11-07T00:55:25.818Z,88.02
2022-11-07T00:56:25.816Z,88.23
2022-11-07T00:57:25.906Z,88.23
2022-11-07T00:58:25.789Z,87.82
2022-11-07T00:59:26.803Z,88.23
2022-11-07T01:00:25.847Z,87.92
2022-11-07T01:01:26.017Z,87.67
2022-11-07T01:02:25.985Z,87.92
2022-11-07T01:03:25.995Z,87.67
2022-11-07T01:04:25.870Z,87.92
2022-11-07T01:05:25.832Z,87.92
2022-11-07T01:06:25.861Z,87.71
2022-11-07T01:07:25.939Z,88.23
2022-11-07T01:08:25.843Z,88.90
2022-11-07T01:09:25.810Z,88.59
2022-11-07T01:10:25.785Z,87.98
2022-11-07T01:11:25.798Z,88.23
2022-11-07T01:12:25.893Z,88.23
2022-11-07T01:13:25.777Z,88.18
2022-11-07T01:14:25.817Z,88.23
2022-11-07T01:15:25.754Z,88.18
2022-11-07T01:16:25.721Z,87.98
2022-11-07T01:17:25.753Z,88.18
2022-11-07T01:18:25.739Z,87.82
2022-11-07T01:19:25.827Z,88.43
2022-11-07T01:20:25.677Z,88.43
2022-11-07T01:21:25.807Z,88.29
2022-11-07T01:22:25.680Z,88.29
2022-11-07T01:23:25.596Z,88.18
2022-11-07T01:24:25.607Z,88.80
2022-11-07T01:25:25.677Z,88.80
2022-11-07T01:26:26.502Z,88.80
2022-11-07T01:27:25.590Z,88.53
2022-11-07T01:28:25.589Z,88.84
2022-11-07T01:29:25.665Z,88.43
2022-11-07T01:30:25.587Z,88.53
2022-11-07T01:31:25.622Z,88.29
2022-11-07T01:32:25.552Z,88.64
2022-11-07T01:33:25.595Z,88.74
2022-11-07T01:34:25.574Z,89.25
2022-11-07T01:35:25.531Z,89.56
2022-11-07T01:36:25.509Z,89.36
2022-11-07T01:37:25.492Z,89.25
2022-11-07T01:38:25.497Z,89.76
2022-11-07T01:39:25.483Z,89.42
2022-11-07T01:40:25.507Z,89.87
2022-11-07T01:41:25.549Z,89.36
2022-11-07T01:42:25.477Z,89.46
2022-11-07T01:43:25.375Z,89.83
2022-11-07T01:44:25.419Z,89.21
2022-11-07T01:45:26.034Z,89.31
2022-11-07T01:46:25.427Z,89.11
2022-11-07T01:47:25.366Z,88.90
2022-11-07T01:48:26.026Z,89.04
2022-11-07T01:49:25.357Z,89.01
2022-11-07T01:50:25.319Z,89.11
2022-11-07T01:51:25.335Z,89.31
2022-11-07T01:52:25.292Z,90.34
2022-11-07T01:53:25.332Z,90.14
2022-11-07T01:54:25.345Z,90.03
2022-11-07T01:55:25.267Z,89.76
2022-11-07T01:56:25.221Z,89.62
2022-11-07T01:57:25.260Z,89.42
2022-11-07T01:58:25.338Z,90.14
2022-11-07T01:59:25.219Z,89.42
2022-11-07T02:00:25.268Z,89.42
2022-11-07T02:01:25.317Z,89.42
2022-11-07T02:02:25.322Z,90.14
2022-11-07T02:03:25.158Z,90.34
2022-11-07T02:04:25.253Z,89.62
2022-11-07T02:05:25.100Z,89.72
2022-11-07T02:06:25.123Z,89.72
2022-11-07T02:07:25.207Z,90.03
2022-11-07T02:08:25.084Z,90.34
2022-11-07T02:09:25.036Z,90.34
2022-11-07T02:10:25.100Z,90.24
2022-11-07T02:11:25.077Z,90.03
2022-11-07T02:12:25.062Z,89.93
2022-11-07T02:13:25.015Z,89.93
2022-11-07T02:14:25.969Z,90.44
2022-11-07T02:15:24.973Z,89.93
2022-11-07T02:16:24.956Z,89.83
2022-11-07T02:17:24.938Z,89.93
2022-11-07T02:18:24.966Z,89.72
2022-11-07T02:19:24.908Z,90.03
2022-11-07T02:20:24.907Z,90.03
2022-11-07T02:21:24.902Z,90.34
2022-11-07T02:22:24.886Z,90.44
2022-11-07T02:23:24.881Z,90.75
2022-11-07T02:24:24.849Z,90.65
2022-11-07T02:25:24.850Z,90.34
2022-11-07T02:26:24.837Z,90.95
2022-11-07T02:27:24.829Z,90.95
2022-11-07T02:28:24.827Z,90.14
2022-11-07T02:29:24.814Z,90.71
2022-11-07T02:30:24.780Z,89.93
2022-11-07T02:31:24.776Z,91.06
2022-11-07T02:32:24.768Z,90.44
2022-11-07T02:33:24.784Z,91.06
2022-11-07T02:34:24.739Z,91.37
2022-11-07T02:35:24.716Z,91.27
2022-11-07T02:36:24.748Z,91.16
2022-11-07T02:37:24.731Z,90.65
2022-11-07T02:38:24.737Z,90.85
2022-11-07T02:39:24.701Z,90.85
2022-11-07T02:40:24.694Z,90.75
2022-11-07T02:41:24.690Z,90.95
2022-11-07T02:42:24.683Z,91.27
2022-11-07T02:43:24.635Z,90.95
2022-11-07T02:44:24.633Z,90.85
2022-11-07T02:45:24.635Z,91.16
2022-11-07T02:46:24.634Z,90.85
2022-11-07T02:47:24.594Z,90.65
2022-11-07T02:48:24.588Z,90.75
2022-11-07T02:49:24.598Z,91.06
2022-11-07T02:50:24.560Z,91.16
2022-11-07T02:51:24.614Z,91.16
2022-11-07T02:52:24.545Z,90.65
2022-11-07T02:53:24.530Z,90.55
2022-11-07T02:54:24.532Z,91.27
2022-11-07T02:55:24.551Z,91.27
2022-11-07T02:56:24.506Z,91.16
2022-11-07T02:57:24.483Z,91.16
2022-11-07T02:58:24.500Z,91.27
2022-11-07T02:59:27.163Z,91.16
2022-11-07T03:00:25.508Z,91.20
2022-11-07T03:01:24.548Z,90.95
2022-11-07T03:02:24.585Z,91.27
2022-11-07T03:03:24.415Z,91.06
2022-11-07T03:04:24.414Z,90.65
2022-11-07T03:05:24.398Z,91.37
2022-11-07T03:06:24.414Z,91.16
2022-11-07T03:07:24.387Z,91.47
2022-11-07T03:08:24.391Z,91.57
2022-11-07T03:09:24.353Z,91.88
2022-11-07T03:10:24.347Z,91.57
2022-11-07T03:11:24.374Z,91.41
2022-11-07T03:12:24.326Z,91.78
2022-11-07T03:13:24.301Z,92.19
2022-11-07T03:14:24.344Z,91.67
2022-11-07T03:15:24.264Z,91.41
2022-11-07T03:16:24.291Z,91.88
2022-11-07T03:19:36.888Z,91.99
2022-11-07T03:20:38.013Z,92.08
2022-11-07T03:21:37.997Z,92.33
2022-11-07T03:22:37.976Z,92.29
2022-11-07T03:23:37.966Z,92.08
2022-11-07T03:24:37.955Z,92.08
2022-11-07T03:25:37.943Z,92.44
2022-11-07T03:26:37.926Z,92.44
2022-11-07T03:27:37.949Z,92.19
2022-11-07T03:28:37.912Z,92.44
2022-11-07T03:29:37.881Z,92.74
2022-11-07T03:30:37.891Z,92.85
2022-11-07T03:31:37.881Z,93.05
2022-11-07T03:33:09.781Z,92.85
2022-11-07T03:33:37.832Z,93.36
2022-11-07T03:34:37.841Z,93.30
2022-11-07T03:35:37.822Z,93.40
2022-11-07T03:36:37.805Z,93.61
2022-11-07T03:37:37.799Z,93.46
2022-11-07T03:38:37.792Z,94.12
2022-11-07T03:39:37.812Z,94.02
2022-11-07T03:40:38.715Z,93.61
2022-11-07T03:41:37.740Z,93.51
2022-11-07T03:42:37.754Z,93.92
2022-11-07T03:43:37.741Z,93.71
2022-11-07T03:44:37.736Z,93.77
2022-11-07T03:45:37.720Z,93.92
2022-11-07T03:46:37.716Z,94.02
2022-11-07T03:47:37.722Z,93.77
2022-11-07T03:48:37.664Z,94.08
2022-11-07T03:49:37.679Z,94.18
2022-11-07T03:50:37.680Z,93.98
2022-11-07T03:51:37.654Z,94.08
2022-11-07T03:52:37.643Z,94.39
2022-11-07T03:53:37.623Z,93.77
2022-11-07T03:54:37.602Z,94.08
2022-11-07T03:55:37.611Z,94.39
2022-11-07T03:56:37.640Z,94.08
2022-11-07T03:57:37.567Z,94.18
2022-11-07T03:58:37.569Z,94.29
2022-11-07T03:59:37.602Z,94.04
2022-11-07T04:00:37.558Z,94.08
2022-11-07T04:01:37.629Z,93.83
2022-11-07T04:02:37.655Z,93.83
2022-11-07T04:03:37.539Z,93.83
2022-11-07T04:04:37.497Z,93.73
2022-11-07T04:05:37.526Z,93.73
2022-11-07T04:06:37.503Z,93.93
2022-11-07T04:07:37.464Z,93.73
2022-11-07T04:08:37.463Z,93.63
2022-11-07T04:09:37.467Z,93.73
2022-11-07T04:10:37.444Z,93.93
2022-11-07T04:11:37.424Z,93.52
2022-11-07T04:12:37.427Z,93.83
2022-11-07T04:13:37.427Z,93.83
2022-11-07T04:14:37.426Z,94.04
2022-11-07T04:15:37.380Z,93.83
2022-11-07T04:16:37.368Z,94.34
2022-11-07T04:17:37.373Z,94.04
2022-11-07T04:18:37.342Z,93.63
2022-11-07T04:19:37.320Z,94.24
2022-11-07T04:20:37.338Z,94.24
2022-11-07T04:21:37.295Z,94.04
2022-11-07T04:22:37.312Z,93.93
2022-11-07T04:23:37.314Z,94.04
2022-11-07T04:24:40.292Z,94.04
2022-11-07T04:25:39.248Z,94.24
2022-11-07T04:26:37.246Z,94.65
2022-11-07T04:27:37.284Z,94.14
2022-11-07T04:28:37.230Z,94.55
2022-11-07T04:29:37.226Z,94.34
2022-11-07T04:30:37.207Z,93.93
2022-11-07T04:31:37.192Z,93.93
2022-11-07T04:32:37.212Z,94.04
2022-11-07T04:33:37.205Z,94.39
2022-11-07T04:34:37.235Z,94.08
2022-11-07T04:35:37.173Z,94.04
2022-11-07T04:36:37.203Z,94.34
2022-11-07T04:37:37.146Z,94.39
2022-11-07T04:38:37.150Z,94.49
2022-11-07T04:39:37.128Z,94.70
2022-11-07T04:40:37.127Z,94.39
2022-11-07T04:41:37.072Z,94.85
2022-11-07T04:42:38.129Z,95.10
2022-11-07T04:43:37.067Z,95.21
2022-11-07T04:44:37.066Z,94.80
2022-11-07T04:45:37.066Z,94.85
2022-11-07T04:46:37.064Z,95.01
2022-11-07T04:47:40.446Z,94.85
2022-11-07T04:48:38.007Z,94.96
2022-11-07T04:49:36.986Z,94.85
2022-11-07T04:50:37.009Z,94.76
2022-11-07T04:51:36.990Z,94.76
2022-11-07T04:52:36.961Z,94.76
2022-11-07T04:53:36.972Z,94.76
2022-11-07T04:54:36.954Z,94.76
2022-11-07T04:55:36.929Z,95.06
2022-11-07T04:56:36.931Z,94.96
2022-11-07T04:57:36.929Z,95.27
2022-11-07T04:58:36.908Z,95.17
2022-11-07T04:59:36.875Z,95.68
2022-11-07T05:00:36.913Z,95.17
2022-11-07T05:01:36.897Z,95.57
2022-11-07T05:02:36.907Z,95.68
2022-11-07T05:03:41.556Z,95.78
2022-11-07T05:04:38.829Z,95.17
2022-11-07T05:05:36.813Z,95.74
2022-11-07T05:06:36.811Z,95.98
2022-11-07T05:07:36.831Z,95.74
2022-11-07T05:08:36.806Z,95.98
2022-11-07T05:09:36.783Z,96.09
2022-11-07T05:10:36.754Z,95.78
2022-11-07T05:11:36.746Z,96.09
2022-11-07T05:12:36.740Z,95.89
2022-11-07T05:13:36.755Z,95.84
2022-11-07T05:14:36.711Z,95.74
2022-11-07T05:15:36.721Z,95.68
2022-11-07T05:16:36.704Z,95.27
2022-11-07T05:17:36.681Z,95.89
2022-11-07T05:18:36.691Z,95.17
2022-11-07T05:19:36.663Z,95.23
2022-11-07T05:20:36.650Z,95.89
2022-11-07T05:21:37.662Z,95.17
2022-11-07T05:22:36.635Z,95.43
2022-11-07T05:23:36.636Z,96.09
2022-11-07T05:24:36.641Z,95.84
2022-11-07T05:25:36.582Z,95.68
2022-11-07T05:26:36.614Z,95.74
2022-11-07T05:27:36.594Z,95.64
2022-11-07T05:28:39.525Z,95.64
2022-11-07T05:29:37.556Z,95.68
2022-11-07T05:30:36.553Z,95.78
2022-11-07T05:31:36.550Z,95.68
2022-11-07T05:32:36.519Z,95.84
2022-11-07T05:33:36.510Z,95.89
2022-11-07T05:34:36.552Z,95.68
2022-11-07T05:35:36.488Z,95.74
2022-11-07T05:36:36.478Z,95.64
2022-11-07T05:37:36.488Z,95.64
2022-11-07T05:38:36.468Z,95.27
2022-11-07T05:39:36.453Z,95.37
2022-11-07T05:40:36.444Z,95.17
2022-11-07T05:41:36.411Z,95.37
2022-11-07T05:42:36.410Z,95.27
2022-11-07T05:43:36.438Z,95.37
2022-11-07T05:44:36.384Z,95.17
2022-11-07T05:45:36.357Z,95.06
2022-11-07T05:46:36.399Z,94.96
2022-11-07T05:47:36.367Z,95.23
2022-11-07T05:48:36.350Z,95.02
2022-11-07T05:49:36.333Z,95.43
2022-11-07T05:50:36.330Z,95.02
2022-11-07T05:51:36.316Z,95.32
2022-11-07T05:52:37.309Z,95.17
2022-11-07T05:53:36.362Z,94.96
2022-11-07T05:54:36.280Z,95.17
2022-11-07T05:55:36.281Z,95.23
2022-11-07T05:56:36.235Z,95.53
2022-11-07T05:57:36.245Z,95.78
2022-11-07T05:58:36.244Z,95.78
2022-11-07T05:59:36.217Z,95.64
2022-11-07T06:00:36.318Z,95.12
2022-11-07T06:01:36.262Z,95.23
2022-11-07T06:02:36.267Z,95.32
2022-11-07T06:03:36.203Z,95.78
2022-11-07T06:04:36.163Z,95.94
2022-11-07T06:05:36.140Z,96.30
2022-11-07T06:06:36.138Z,96.04
2022-11-07T06:07:36.133Z,95.94
2022-11-07T06:08:36.143Z,95.94
2022-11-07T06:09:36.096Z,96.04
2022-11-07T06:10:36.160Z,96.15
2022-11-07T06:11:36.106Z,95.94
2022-11-07T06:12:36.058Z,96.09
2022-11-07T06:13:36.103Z,96.15
2022-11-07T06:14:36.068Z,96.40
2022-11-07T06:15:36.040Z,96.50
2022-11-07T06:16:36.037Z,96.60
2022-11-07T06:17:36.013Z,96.30
2022-11-07T06:18:40.455Z,96.70
2022-11-07T06:19:38.011Z,96.70
2022-11-07T06:20:35.983Z,96.91
2022-11-07T06:21:35.997Z,96.45
2022-11-07T06:22:35.961Z,97.69
2022-11-07T06:23:35.945Z,97.58
2022-11-07T06:24:35.935Z,97.73
2022-11-07T06:25:35.946Z,97.63
2022-11-07T06:26:35.962Z,97.32
2022-11-07T06:27:35.913Z,97.38
2022-11-07T06:28:35.902Z,97.28
2022-11-07T06:29:35.863Z,97.42
2022-11-07T06:30:35.877Z,97.32
2022-11-07T06:31:35.860Z,97.28
2022-11-07T06:32:35.855Z,97.38
2022-11-07T06:33:35.820Z,97.63
2022-11-07T06:34:35.881Z,97.42
2022-11-07T06:35:37.840Z,97.38
2022-11-07T06:36:35.825Z,97.38
2022-11-07T06:37:35.817Z,97.28
2022-11-07T06:38:35.807Z,97.69
2022-11-07T06:39:35.762Z,97.69
2022-11-07T06:40:35.760Z,97.79
2022-11-07T06:41:35.777Z,96.56
2022-11-07T06:42:35.732Z,96.62
2022-11-07T06:43:35.726Z,97.74
2022-11-07T06:44:35.725Z,97.79
2022-11-07T06:45:35.708Z,97.64
2022-11-07T06:46:35.720Z,97.64
2022-11-07T06:47:35.702Z,97.23
2022-11-07T06:48:35.700Z,97.23
2022-11-07T06:49:35.663Z,97.64
2022-11-07T06:50:35.648Z,97.74
2022-11-07T06:51:35.719Z,97.03
2022-11-07T06:52:35.623Z,96.92
2022-11-07T06:53:35.612Z,96.72
2022-11-07T06:54:35.589Z,96.62
2022-11-07T06:55:35.607Z,96.37
2022-11-07T06:56:35.598Z,96.62
2022-11-07T06:57:35.589Z,96.16
2022-11-07T06:58:35.576Z,96.16
2022-11-07T06:59:35.564Z,96.57
2022-11-07T07:00:35.583Z,96.67
2022-11-07T07:01:35.611Z,96.37
2022-11-07T07:02:57.259Z,95.86
2022-11-07T07:03:37.508Z,96.37
2022-11-07T07:04:35.484Z,95.86
2022-11-07T07:05:36.512Z,95.95
2022-11-07T07:06:35.467Z,95.91
2022-11-07T07:07:35.465Z,95.61
2022-11-07T07:08:36.304Z,95.81
2022-11-07T07:09:35.461Z,96.06
2022-11-07T07:10:35.484Z,95.61
2022-11-07T07:11:35.417Z,95.44
2022-11-07T07:12:35.407Z,95.91
2022-11-07T07:13:35.381Z,95.40
2022-11-07T07:14:35.372Z,95.15
2022-11-07T07:15:49.871Z,94.99
2022-11-07T07:16:37.352Z,94.89
2022-11-07T07:17:35.345Z,95.50
2022-11-07T07:18:35.347Z,95.50
2022-11-07T07:19:35.340Z,95.36
2022-11-07T07:20:35.416Z,94.84
2022-11-07T07:21:35.301Z,94.64
2022-11-07T07:22:36.303Z,94.54
2022-11-07T07:23:35.258Z,94.23
2022-11-07T07:24:35.286Z,94.33
2022-11-07T07:25:35.242Z,93.92
2022-11-07T07:26:35.263Z,93.88
2022-11-07T07:27:35.259Z,93.92
2022-11-07T07:28:35.242Z,93.82
2022-11-07T07:29:35.218Z,93.57
2022-11-07T07:30:35.206Z,93.88
2022-11-07T07:31:35.207Z,93.77
2022-11-07T07:32:35.194Z,93.16
2022-11-07T07:33:35.202Z,93.67
2022-11-07T07:34:35.147Z,93.22
2022-11-07T07:35:35.129Z,93.22
2022-11-07T07:36:35.263Z,93.01
2022-11-07T07:37:35.141Z,92.87
2022-11-07T07:38:35.126Z,92.25
2022-11-07T07:39:35.120Z,92.25
2022-11-07T07:40:35.100Z,91.85
2022-11-07T07:41:39.913Z,92.05
2022-11-07T07:42:37.104Z,91.95
2022-11-07T07:43:35.049Z,92.05
2022-11-07T07:44:35.052Z,91.64
2022-11-07T07:45:35.029Z,91.54
2022-11-07T07:46:35.050Z,91.54
2022-11-07T07:47:35.020Z,91.64
2022-11-07T07:48:35.042Z,91.29
2022-11-07T07:49:34.981Z,91.50
2022-11-07T07:50:34.965Z,91.09
2022-11-07T07:51:35.014Z,91.19
2022-11-07T07:52:35.057Z,91.29
2022-11-07T07:53:34.960Z,90.64
2022-11-07T07:54:34.939Z,90.94
2022-11-07T07:55:34.915Z,90.23
2022-11-07T07:56:34.908Z,89.92
2022-11-07T07:57:34.925Z,89.67
2022-11-07T07:58:34.897Z,89.61
2022-11-07T07:59:35.865Z,90.33
2022-11-07T08:00:34.945Z,89.92
2022-11-07T08:01:34.928Z,90.53
2022-11-07T08:02:34.993Z,90.37
2022-11-07T08:03:57.553Z,90.64
2022-11-07T08:04:36.836Z,90.78
2022-11-07T08:05:34.827Z,91.19
2022-11-07T08:06:34.818Z,91.09
2022-11-07T08:07:35.783Z,90.47
2022-11-07T08:08:38.084Z,91.09
2022-11-07T08:09:35.749Z,90.58
2022-11-07T08:10:42.067Z,91.15
2022-11-07T08:11:36.779Z,90.12
2022-11-07T08:12:34.734Z,90.84
2022-11-07T08:13:34.760Z,90.33
2022-11-07T08:14:34.728Z,90.33
2022-11-07T08:15:34.708Z,90.74
2022-11-07T08:16:34.703Z,90.43
2022-11-07T08:17:35.205Z,90.64
2022-11-07T08:18:34.679Z,90.84
2022-11-07T08:19:34.644Z,89.37
2022-11-07T08:20:34.645Z,90.08
2022-11-07T08:21:34.659Z,89.67
2022-11-07T08:22:34.661Z,88.71
2022-11-07T08:23:34.611Z,89.26
2022-11-07T08:24:34.687Z,88.96
2022-11-07T08:25:34.564Z,88.65
2022-11-07T08:26:34.591Z,89.37
2022-11-07T08:27:34.588Z,89.12
2022-11-07T08:28:34.555Z,89.12
2022-11-07T08:29:34.552Z,88.82
2022-11-07T08:30:34.531Z,88.10
2022-11-07T08:31:34.529Z,88.20
2022-11-07T08:32:34.507Z,88.20
2022-11-07T08:33:34.615Z,88.51
2022-11-07T08:34:34.471Z,88.00
2022-11-07T08:35:39.533Z,87.79
2022-11-07T08:36:36.487Z,88.61
2022-11-07T08:37:34.474Z,88.10
2022-11-07T08:38:34.456Z,88.10
2022-11-07T08:39:34.413Z,89.12
2022-11-07T08:40:34.445Z,88.41
2022-11-07T08:41:34.419Z,88.96
2022-11-07T08:42:34.400Z,88.55
2022-11-07T08:43:34.394Z,89.02
2022-11-07T08:44:34.365Z,88.00
2022-11-07T08:45:34.351Z,88.10
2022-11-07T08:46:34.350Z,88.10
2022-11-07T08:47:34.360Z,88.00
2022-11-07T08:48:34.340Z,88.00
2022-11-07T08:49:34.316Z,88.00
2022-11-07T08:50:34.542Z,88.00
2022-11-07T08:51:34.299Z,87.90
2022-11-07T08:52:34.273Z,87.70
2022-11-07T08:53:34.268Z,88.71
2022-11-07T08:54:34.287Z,88.41
2022-11-07T08:55:34.248Z,88.45
2022-11-07T08:56:34.252Z,88.10
2022-11-07T08:57:34.227Z,88.10
2022-11-07T08:58:34.229Z,88.41
2022-11-07T08:59:34.193Z,88.31
2022-11-07T09:00:35.136Z,88.20
2022-11-07T09:01:40.410Z,87.90
2022-11-07T09:03:48.910Z,88.37
2022-11-07T09:04:36.773Z,87.65
2022-11-07T09:05:34.146Z,87.14
2022-11-07T09:06:34.133Z,87.65
2022-11-07T09:07:34.105Z,87.14
2022-11-07T09:08:34.107Z,86.73
2022-11-07T09:09:34.077Z,87.14
2022-11-07T09:10:34.315Z,87.04
2022-11-07T09:11:34.105Z,86.94
2022-11-07T09:12:34.067Z,87.04
2022-11-07T09:13:34.056Z,86.94
2022-11-07T09:14:34.086Z,86.63
2022-11-07T09:15:34.058Z,86.12
2022-11-07T09:16:34.012Z,86.94
2022-11-07T09:17:34.052Z,86.90
2022-11-07T09:18:33.991Z,86.80
2022-11-07T09:19:33.959Z,86.90
2022-11-07T09:20:33.992Z,87.20
2022-11-07T09:21:33.964Z,87.00
2022-11-07T09:22:33.955Z,85.98
2022-11-07T09:23:33.935Z,86.39
2022-11-07T09:24:33.935Z,85.98
2022-11-07T09:25:33.935Z,86.49
2022-11-07T09:26:33.932Z,86.29
2022-11-07T09:27:33.916Z,86.59
2022-11-07T09:28:33.955Z,86.59
2022-11-07T09:29:33.906Z,86.59
2022-11-07T09:30:33.906Z,86.18
2022-11-07T09:31:33.853Z,86.18
2022-11-07T09:32:48.272Z,86.69
2022-11-07T09:34:02.754Z,86.59
2022-11-07T09:34:33.826Z,86.18
2022-11-07T09:35:33.852Z,85.98
2022-11-07T09:36:33.841Z,86.39
2022-11-07T09:37:33.798Z,86.39
2022-11-07T09:38:33.775Z,87.00
2022-11-07T09:39:33.776Z,85.98
2022-11-07T09:40:33.800Z,86.49
2022-11-07T09:41:33.742Z,86.45
2022-11-07T09:42:33.741Z,86.69
2022-11-07T09:43:33.706Z,86.69
2022-11-07T09:44:37.373Z,86.49
2022-11-07T09:45:34.695Z,86.39
2022-11-07T09:46:33.699Z,87.00
2022-11-07T09:47:33.694Z,86.18
2022-11-07T09:48:33.660Z,86.39
2022-11-07T09:49:33.645Z,86.39
2022-11-07T09:50:33.637Z,86.59
2022-11-07T09:51:33.647Z,86.90
2022-11-07T09:52:33.626Z,86.59
2022-11-07T09:53:33.618Z,86.90
2022-11-07T09:54:33.587Z,87.20
2022-11-07T09:55:33.618Z,87.10
2022-11-07T09:56:33.577Z,86.80
2022-11-07T09:57:33.558Z,87.06
2022-11-07T09:58:33.578Z,86.76
2022-11-07T09:59:33.529Z,86.45
2022-11-07T10:00:33.523Z,85.84
2022-11-07T10:01:33.650Z,85.53
2022-11-07T10:02:33.576Z,86.04
2022-11-07T10:03:33.507Z,85.60
2022-11-07T10:04:33.478Z,85.43
2022-11-07T10:05:33.488Z,85.90
2022-11-07T10:06:33.469Z,85.94
2022-11-07T10:07:34.237Z,86.10
2022-11-07T10:08:33.444Z,86.15
2022-11-07T10:09:33.447Z,85.94
2022-11-07T10:10:33.423Z,86.00
2022-11-07T10:11:33.421Z,86.24
2022-11-07T10:12:33.425Z,85.39
2022-11-07T10:13:33.434Z,84.88
2022-11-07T10:14:33.368Z,84.88
2022-11-07T10:15:33.389Z,84.67
2022-11-07T10:16:33.471Z,85.28
2022-11-07T10:17:33.339Z,84.53
2022-11-07T10:18:33.330Z,84.94
2022-11-07T10:19:33.348Z,84.74
2022-11-07T10:20:33.300Z,85.25
2022-11-07T10:21:38.106Z,84.53
2022-11-07T10:22:35.288Z,84.53
2022-11-07T10:23:33.289Z,84.64
2022-11-07T10:24:33.286Z,84.53
2022-11-07T10:25:33.280Z,84.03
2022-11-07T10:26:33.242Z,84.64
2022-11-07T10:27:33.238Z,84.33
2022-11-07T10:28:33.258Z,84.23
2022-11-07T10:29:33.202Z,84.94
2022-11-07T10:30:33.198Z,85.14
2022-11-07T10:31:33.181Z,85.49
2022-11-07T10:32:33.206Z,84.98
2022-11-07T10:33:33.164Z,84.67
2022-11-07T10:34:33.159Z,85.45
2022-11-07T10:35:33.170Z,85.69
2022-11-07T10:36:33.129Z,85.49
2022-11-07T10:37:33.110Z,85.69
2022-11-07T10:38:33.142Z,86.21
2022-11-07T10:39:33.140Z,85.60
2022-11-07T10:40:33.087Z,85.80
2022-11-07T10:41:33.092Z,85.60
2022-11-07T10:42:33.068Z,86.00
2022-11-07T10:43:33.073Z,85.14
2022-11-07T10:44:33.062Z,85.55
2022-11-07T10:45:33.044Z,85.05
2022-11-07T10:46:33.018Z,85.05
2022-11-07T10:47:33.036Z,85.05
2022-11-07T10:48:33.088Z,85.35
2022-11-07T10:49:32.983Z,85.35
2022-11-07T10:50:33.000Z,85.35
2022-11-07T10:51:32.983Z,85.55
2022-11-07T10:52:32.948Z,85.86
2022-11-07T10:53:32.981Z,85.90
2022-11-07T10:54:33.727Z,85.75
2022-11-07T10:55:32.932Z,85.55
2022-11-07T10:56:32.904Z,84.67
2022-11-07T10:57:32.901Z,86.61
2022-11-07T10:58:32.891Z,85.19
2022-11-07T10:59:36.135Z,85.39
2022-11-07T11:00:33.856Z,84.43
2022-11-07T11:01:32.931Z,84.53
2022-11-07T11:02:32.864Z,84.58
2022-11-07T11:03:43.843Z,84.03
2022-11-07T11:04:35.719Z,84.84
2022-11-07T11:05:32.827Z,84.43
2022-11-07T11:06:32.798Z,84.88
2022-11-07T11:07:32.782Z,84.67
2022-11-07T11:08:32.769Z,84.64
2022-11-07T11:09:32.817Z,84.53
2022-11-07T11:10:32.834Z,84.74
2022-11-07T11:11:32.808Z,84.43
2022-11-07T11:12:34.461Z,84.74
2022-11-07T11:13:34.248Z,84.53
2022-11-07T11:14:32.741Z,84.12
2022-11-07T11:15:35.720Z,83.58
2022-11-07T11:16:33.676Z,83.17
2022-11-07T11:17:32.728Z,82.87
2022-11-07T11:18:32.668Z,82.90
2022-11-07T11:19:32.653Z,83.07
2022-11-07T11:20:32.648Z,82.76
2022-11-07T11:21:32.658Z,82.76
2022-11-07T11:22:32.636Z,83.27
2022-11-07T11:23:32.617Z,83.21
2022-11-07T11:24:32.644Z,83.62
2022-11-07T11:25:32.596Z,84.09
2022-11-07T11:26:32.576Z,83.48
2022-11-07T11:27:32.565Z,83.62
2022-11-07T11:28:32.616Z,83.78
2022-11-07T11:29:38.244Z,82.97
2022-11-07T11:30:34.553Z,82.90
2022-11-07T11:31:32.542Z,83.01
2022-11-07T11:32:32.533Z,83.51
2022-11-07T11:33:32.525Z,83.51
2022-11-07T11:34:32.482Z,83.92
2022-11-07T11:35:33.221Z,83.62
2022-11-07T11:36:32.487Z,83.21
2022-11-07T11:37:32.471Z,83.17
2022-11-07T11:38:32.449Z,83.17
2022-11-07T11:39:32.437Z,83.07
2022-11-07T11:40:32.458Z,83.27
2022-11-07T11:41:32.446Z,82.87
2022-11-07T11:42:32.406Z,82.82
2022-11-07T11:43:32.421Z,82.52
2022-11-07T11:44:32.391Z,82.42
2022-11-07T11:45:32.382Z,82.73
2022-11-07T11:46:32.383Z,82.66
2022-11-07T11:47:34.751Z,82.90
2022-11-07T11:48:33.333Z,82.76
2022-11-07T11:49:32.334Z,82.76
2022-11-07T11:50:32.354Z,82.73
2022-11-07T11:51:32.340Z,82.21
2022-11-07T11:52:32.633Z,82.46
2022-11-07T11:53:32.292Z,82.32
2022-11-07T11:54:32.265Z,82.01
2022-11-07T11:55:32.277Z,81.91
2022-11-07T11:56:32.259Z,81.81
2022-11-07T11:57:32.257Z,81.81
2022-11-07T11:58:32.237Z,81.60
2022-11-07T11:59:32.238Z,81.51
2022-11-07T12:00:32.190Z,81.30
2022-11-07T12:01:32.198Z,81.77
2022-11-07T12:02:32.326Z,82.01
2022-11-07T12:03:32.173Z,82.21
2022-11-07T12:04:32.155Z,82.21
2022-11-07T12:05:32.142Z,82.42
2022-11-07T12:06:32.150Z,82.07
2022-11-07T12:07:32.158Z,82.18
2022-11-07T12:08:32.153Z,81.87
2022-11-07T12:09:32.104Z,82.12
2022-11-07T12:10:32.114Z,82.52
2022-11-07T12:11:32.096Z,82.07
2022-11-07T12:12:32.065Z,82.21
2022-11-07T12:13:32.075Z,82.32
2022-11-07T12:14:32.052Z,82.01
2022-11-07T12:15:32.064Z,82.21
2022-11-07T12:16:32.023Z,82.12
2022-11-07T12:17:32.020Z,82.21
2022-11-07T12:18:32.999Z,82.12
2022-11-07T12:19:32.002Z,82.01
2022-11-07T12:20:31.998Z,82.12
2022-11-07T12:21:31.964Z,82.28
2022-11-07T12:22:31.997Z,81.87
2022-11-07T12:23:31.951Z,82.07
2022-11-07T12:24:31.938Z,82.18
2022-11-07T12:25:31.971Z,82.59
2022-11-07T12:26:31.945Z,82.28
2022-11-07T12:27:31.911Z,82.59
2022-11-07T12:28:31.895Z,82.68
2022-11-07T12:29:31.884Z,82.59
2022-11-07T12:30:31.867Z,82.48
2022-11-07T12:31:31.913Z,82.68
2022-11-07T12:32:31.856Z,82.59
2022-11-07T12:33:31.867Z,82.79
2022-11-07T12:34:31.831Z,82.89
2022-11-07T12:35:31.842Z,82.73
2022-11-07T12:36:31.819Z,82.73
2022-11-07T12:37:31.803Z,82.12
2022-11-07T12:38:31.838Z,82.42
2022-11-07T12:39:31.790Z,82.28
2022-11-07T12:40:31.781Z,82.28
2022-11-07T12:41:31.759Z,81.77
2022-11-07T12:42:31.783Z,81.67
2022-11-07T12:43:31.726Z,81.91
2022-11-07T12:44:31.741Z,81.67
2022-11-07T12:45:31.787Z,82.52
2022-11-07T12:46:31.703Z,82.62
2022-11-07T12:47:31.717Z,82.93
2022-11-07T12:48:31.678Z,83.03
2022-11-07T12:49:31.699Z,83.03
2022-11-07T12:50:31.668Z,82.93
2022-11-07T12:51:31.635Z,83.23
2022-11-07T12:52:31.651Z,83.34
2022-11-07T12:53:31.649Z,83.84
2022-11-07T12:54:31.627Z,83.84
2022-11-07T12:55:31.627Z,83.64